sensor_id;sensor_type;location;lat;lon;timestamp;pressure;altitude;pressure_sealevel;temperature;humidity
61014;BME280;46899;47.542;19.082;2022-12-01T00:00:53;101169.37;;;3.93;100.00
61014;BME280;46899;47.542;19.082;2022-12-01T00:03:56;101160.75;;;3.86;100.00
61014;BME280;46899;47.542;19.082;2022-12-01T00:06:58;101171.91;;;3.85;96.49
61014;BME280;46899;47.542;19.082;2022-12-01T00:10:01;101171.03;;;3.83;98.03
61014;BME280;46899;47.542;19.082;2022-12-01T00:13:22;101181.28;;;3.76;98.03
61014;BME280;46899;47.542;19.082;2022-12-01T00:16:24;101182.09;;;3.64;98.93
61014;BME280;46899;47.542;19.082;2022-12-01T00:19:26;101187.16;;;3.58;98.37
61014;BME280;46899;47.542;19.082;2022-12-01T00:22:29;101183.66;;;3.47;98.74
61014;BME280;46899;47.542;19.082;2022-12-01T00:25:31;101192.19;;;3.40;99.15
61014;BME280;46899;47.542;19.082;2022-12-01T00:28:34;101190.44;;;3.36;98.94
61014;BME280;46899;47.542;19.082;2022-12-01T00:31:36;101189.56;;;3.31;96.26
61014;BME280;46899;47.542;19.082;2022-12-01T00:34:39;101192.97;;;3.30;95.60
61014;BME280;46899;47.542;19.082;2022-12-01T00:37:41;101195.50;;;3.24;94.69
61014;BME280;46899;47.542;19.082;2022-12-01T00:40:44;101188.50;;;3.09;97.09
61014;BME280;46899;47.542;19.082;2022-12-01T00:43:46;101201.19;;;2.91;98.01
61014;BME280;46899;47.542;19.082;2022-12-01T00:46:49;101199.34;;;2.76;99.77
61014;BME280;46899;47.542;19.082;2022-12-01T00:49:51;101201.00;;;2.71;100.00
61014;BME280;46899;47.542;19.082;2022-12-01T00:52:54;101203.44;;;2.59;100.00
61014;BME280;46899;47.542;19.082;2022-12-01T00:55:56;101199.87;;;2.48;100.00
61014;BME280;46899;47.542;19.082;2022-12-01T00:58:59;101197.13;;;2.32;100.00
61014;BME280;46899;47.542;19.082;2022-12-01T01:02:02;101211.50;;;2.19;100.00
61014;BME280;46899;47.542;19.082;2022-12-01T01:05:05;101212.28;;;2.12;100.00
61014;BME280;46899;47.542;19.082;2022-12-01T01:08:08;101208.88;;;2.13;100.00
61014;BME280;46899;47.542;19.082;2022-12-01T01:11:11;101205.44;;;2.13;100.00
61014;BME280;46899;47.542;19.082;2022-12-01T01:14:13;101206.37;;;2.19;100.00
61014;BME280;46899;47.542;19.082;2022-12-01T01:17:15;101201.97;;;2.09;100.00
61014;BME280;46899;47.542;19.082;2022-12-01T01:20:18;101202.66;;;1.96;100.00
61014;BME280;46899;47.542;19.082;2022-12-01T01:23:20;101195.72;;;1.89;100.00
61014;BME280;46899;47.542;19.082;2022-12-01T01:26:23;101198.16;;;1.80;100.00
61014;BME280;46899;47.542;19.082;2022-12-01T01:29:26;101196.44;;;1.79;100.00
61014;BME280;46899;47.542;19.082;2022-12-01T01:32:28;101197.22;;;1.75;100.00
61014;BME280;46899;47.542;19.082;2022-12-01T01:35:31;101197.34;;;1.84;100.00
61014;BME280;46899;47.542;19.082;2022-12-01T01:38:34;101195.81;;;1.96;100.00
61014;BME280;46899;47.542;19.082;2022-12-01T01:41:37;101202.69;;;1.99;100.00
61014;BME280;46899;47.542;19.082;2022-12-01T01:44:50;101193.53;;;2.16;100.00
61014;BME280;46899;47.542;19.082;2022-12-01T01:47:54;101199.31;;;2.03;100.00
61014;BME280;46899;47.542;19.082;2022-12-01T01:50:58;101197.56;;;2.00;100.00
61014;BME280;46899;47.542;19.082;2022-12-01T01:54:02;101198.44;;;1.99;100.00
61014;BME280;46899;47.542;19.082;2022-12-01T01:57:05;101197.50;;;1.93;100.00
61014;BME280;46899;47.542;19.082;2022-12-01T02:00:10;101200.84;;;1.87;100.00
61014;BME280;46899;47.542;19.082;2022-12-01T02:03:14;101202.47;;;1.84;100.00
61014;BME280;46899;47.542;19.082;2022-12-01T02:06:17;101196.34;;;1.71;100.00
61014;BME280;46899;47.542;19.082;2022-12-01T02:09:19;101193.56;;;1.58;100.00
61014;BME280;46899;47.542;19.082;2022-12-01T02:15:39;101187.06;;;1.25;100.00
61014;BME280;46899;47.542;19.082;2022-12-01T02:19:35;101188.81;;;1.26;100.00
61014;BME280;46899;47.542;19.082;2022-12-01T02:38:24;101192.91;;;0.67;100.00
61014;BME280;46899;47.542;19.082;2022-12-01T02:41:31;101193.56;;;0.57;100.00
61014;BME280;46899;47.542;19.082;2022-12-01T02:44:37;101191.72;;;0.49;100.00
61014;BME280;46899;47.542;19.082;2022-12-01T02:47:40;101189.91;;;0.45;100.00
61014;BME280;46899;47.542;19.082;2022-12-01T02:50:43;101192.34;;;0.39;100.00
61014;BME280;46899;47.542;19.082;2022-12-01T02:53:46;101188.94;;;0.38;100.00
61014;BME280;46899;47.542;19.082;2022-12-01T02:56:53;101185.47;;;0.35;100.00
61014;BME280;46899;47.542;19.082;2022-12-01T02:59:55;101187.88;;;0.29;100.00
61014;BME280;46899;47.542;19.082;2022-12-01T03:03:06;101177.56;;;0.24;100.00
61014;BME280;46899;47.542;19.082;2022-12-01T03:06:18;101181.00;;;0.26;100.00
61014;BME280;46899;47.542;19.082;2022-12-01T03:12:37;101182.59;;;0.20;100.00
61014;BME280;46899;47.542;19.082;2022-12-01T03:18:54;101174.72;;;0.11;100.00
61014;BME280;46899;47.542;19.082;2022-12-01T03:22:00;101180.53;;;0.02;100.00
61014;BME280;46899;47.542;19.082;2022-12-01T03:25:06;101184.00;;;0.06;100.00
61014;BME280;46899;47.542;19.082;2022-12-01T03:28:09;101181.63;;;0.15;100.00
61014;BME280;46899;47.542;19.082;2022-12-01T03:31:26;101184.00;;;0.06;100.00
61014;BME280;46899;47.542;19.082;2022-12-01T03:37:36;101172.69;;;-0.06;100.00
61014;BME280;46899;47.542;19.082;2022-12-01T03:40:41;101165.03;;;-0.06;100.00
61014;BME280;46899;47.542;19.082;2022-12-01T03:43:45;101169.16;;;-0.11;100.00
61014;BME280;46899;47.542;19.082;2022-12-01T03:46:56;101162.31;;;-0.13;100.00
61014;BME280;46899;47.542;19.082;2022-12-01T03:50:00;101161.31;;;-0.20;100.00
61014;BME280;46899;47.542;19.082;2022-12-01T03:56:05;101168.00;;;-0.26;100.00
61014;BME280;46899;47.542;19.082;2022-12-01T03:59:09;101169.94;;;-0.15;100.00
61014;BME280;46899;47.542;19.082;2022-12-01T04:02:12;101166.63;;;-0.11;100.00
61014;BME280;46899;47.542;19.082;2022-12-01T04:05:15;101169.97;;;-0.13;100.00
61014;BME280;46899;47.542;19.082;2022-12-01T04:08:23;101164.84;;;-0.13;100.00
61014;BME280;46899;47.542;19.082;2022-12-01T04:11:26;101163.16;;;-0.13;100.00
61014;BME280;46899;47.542;19.082;2022-12-01T04:14:47;101162.41;;;-0.07;100.00
61014;BME280;46899;47.542;19.082;2022-12-01T04:17:49;101160.81;;;-0.02;100.00
61014;BME280;46899;47.542;19.082;2022-12-01T04:20:51;101156.66;;;0.02;100.00
61014;BME280;46899;47.542;19.082;2022-12-01T04:23:54;101156.09;;;0.18;100.00
61014;BME280;46899;47.542;19.082;2022-12-01T04:27:02;101168.78;;;0.12;100.00
61014;BME280;46899;47.542;19.082;2022-12-01T04:30:05;101160.00;;;0.00;100.00
61014;BME280;46899;47.542;19.082;2022-12-01T04:33:07;101163.34;;;-0.04;100.00
61014;BME280;46899;47.542;19.082;2022-12-01T04:36:10;101163.25;;;-0.08;100.00
61014;BME280;46899;47.542;19.082;2022-12-01T04:39:12;101160.69;;;-0.10;100.00
61014;BME280;46899;47.542;19.082;2022-12-01T04:42:14;101162.28;;;-0.15;100.00
61014;BME280;46899;47.542;19.082;2022-12-01T04:45:16;101163.00;;;-0.20;100.00
61014;BME280;46899;47.542;19.082;2022-12-01T04:48:19;101170.50;;;-0.28;100.00
61014;BME280;46899;47.542;19.082;2022-12-01T04:51:21;101170.38;;;-0.34;100.00
61014;BME280;46899;47.542;19.082;2022-12-01T04:54:24;101184.88;;;-0.33;100.00
61014;BME280;46899;47.542;19.082;2022-12-01T04:57:26;101198.41;;;-0.37;100.00
61014;BME280;46899;47.542;19.082;2022-12-01T05:00:29;101198.31;;;-0.41;100.00
61014;BME280;46899;47.542;19.082;2022-12-01T05:03:34;101197.31;;;-0.48;100.00
61014;BME280;46899;47.542;19.082;2022-12-01T05:06:37;101200.75;;;-0.47;100.00
61014;BME280;46899;47.542;19.082;2022-12-01T05:09:39;101194.75;;;-0.48;100.00
61014;BME280;46899;47.542;19.082;2022-12-01T05:12:42;101186.22;;;-0.50;100.00
61014;BME280;46899;47.542;19.082;2022-12-01T05:15:44;101188.75;;;-0.50;100.00
61014;BME280;46899;47.542;19.082;2022-12-01T05:18:52;101183.69;;;-0.47;100.00
61014;BME280;46899;47.542;19.082;2022-12-01T05:22:13;101185.31;;;-0.52;100.00
61014;BME280;46899;47.542;19.082;2022-12-01T05:25:16;101189.44;;;-0.57;100.00
61014;BME280;46899;47.542;19.082;2022-12-01T05:28:19;101185.06;;;-0.61;100.00
61014;BME280;46899;47.542;19.082;2022-12-01T05:31:22;101190.19;;;-0.61;100.00
61014;BME280;46899;47.542;19.082;2022-12-01T05:34:24;101188.38;;;-0.66;100.00
61014;BME280;46899;47.542;19.082;2022-12-01T05:37:27;101191.66;;;-0.71;100.00
61014;BME280;46899;47.542;19.082;2022-12-01T05:40:34;101189.78;;;-0.78;100.00
61014;BME280;46899;47.542;19.082;2022-12-01T05:43:37;101194.84;;;-0.81;100.00
61014;BME280;46899;47.542;19.082;2022-12-01T05:46:39;101187.19;;;-0.81;100.00
61014;BME280;46899;47.542;19.082;2022-12-01T05:49:42;101192.19;;;-0.85;100.00
61014;BME280;46899;47.542;19.082;2022-12-01T05:52:44;101185.31;;;-0.86;100.00
61014;BME280;46899;47.542;19.082;2022-12-01T05:55:51;101181.22;;;-0.80;100.00
61014;BME280;46899;47.542;19.082;2022-12-01T05:58:54;101190.53;;;-0.83;100.00
61014;BME280;46899;47.542;19.082;2022-12-01T06:01:56;101195.63;;;-0.83;100.00
61014;BME280;46899;47.542;19.082;2022-12-01T06:04:59;101194.75;;;-0.84;100.00
61014;BME280;46899;47.542;19.082;2022-12-01T06:08:02;101202.53;;;-0.79;100.00
61014;BME280;46899;47.542;19.082;2022-12-01T06:11:04;101202.91;;;-0.64;100.00
61014;BME280;46899;47.542;19.082;2022-12-01T06:14:07;101202.03;;;-0.64;100.00
61014;BME280;46899;47.542;19.082;2022-12-01T06:17:09;101214.69;;;-0.69;100.00
61014;BME280;46899;47.542;19.082;2022-12-01T06:20:12;101212.91;;;-0.73;100.00
61014;BME280;46899;47.542;19.082;2022-12-01T06:23:14;101212.97;;;-0.70;100.00
61014;BME280;46899;47.542;19.082;2022-12-01T06:26:16;101204.56;;;-0.66;100.00
61014;BME280;46899;47.542;19.082;2022-12-01T06:29:19;101215.00;;;-0.57;100.00
61014;BME280;46899;47.542;19.082;2022-12-01T06:32:22;101213.19;;;-0.61;100.00
61014;BME280;46899;47.542;19.082;2022-12-01T06:35:24;101215.91;;;-0.55;100.00
61014;BME280;46899;47.542;19.082;2022-12-01T06:38:30;101215.91;;;-0.55;100.00
61014;BME280;46899;47.542;19.082;2022-12-01T06:41:32;101217.69;;;-0.51;100.00
61014;BME280;46899;47.542;19.082;2022-12-01T06:44:35;101205.88;;;-0.46;100.00
61014;BME280;46899;47.542;19.082;2022-12-01T06:47:37;101208.53;;;-0.41;100.00
61014;BME280;46899;47.542;19.082;2022-12-01T06:50:40;101211.28;;;-0.34;100.00
61014;BME280;46899;47.542;19.082;2022-12-01T06:53:42;101200.19;;;-0.33;100.00
61014;BME280;46899;47.542;19.082;2022-12-01T06:56:45;101213.37;;;-0.16;100.00
61014;BME280;46899;47.542;19.082;2022-12-01T06:59:47;101216.13;;;-0.07;100.00
61014;BME280;46899;47.542;19.082;2022-12-01T07:02:51;101212.84;;;-0.02;100.00
61014;BME280;46899;47.542;19.082;2022-12-01T07:05:54;101212.03;;;0.01;100.00
61014;BME280;46899;47.542;19.082;2022-12-01T07:08:59;101207.06;;;0.07;100.00
61014;BME280;46899;47.542;19.082;2022-12-01T07:12:02;101209.03;;;0.19;100.00
61014;BME280;46899;47.542;19.082;2022-12-01T07:15:05;101208.31;;;0.26;100.00
61014;BME280;46899;47.542;19.082;2022-12-01T07:18:09;101211.88;;;0.34;100.00
61014;BME280;46899;47.542;19.082;2022-12-01T07:21:12;101213.53;;;0.32;100.00
61014;BME280;46899;47.542;19.082;2022-12-01T07:24:16;101217.06;;;0.37;100.00
61014;BME280;46899;47.542;19.082;2022-12-01T07:27:18;101218.22;;;0.52;100.00
61014;BME280;46899;47.542;19.082;2022-12-01T07:30:21;101220.28;;;0.72;100.00
61014;BME280;46899;47.542;19.082;2022-12-01T07:33:29;101216.94;;;0.74;100.00
61014;BME280;46899;47.542;19.082;2022-12-01T07:36:32;101217.97;;;0.84;100.00
61014;BME280;46899;47.542;19.082;2022-12-01T07:39:35;101220.97;;;1.08;100.00
61014;BME280;46899;47.542;19.082;2022-12-01T07:42:40;101222.00;;;1.20;100.00
61014;BME280;46899;47.542;19.082;2022-12-01T07:45:43;101221.47;;;1.38;100.00
61014;BME280;46899;47.542;19.082;2022-12-01T07:48:46;101226.00;;;1.56;100.00
61014;BME280;46899;47.542;19.082;2022-12-01T07:51:48;101216.19;;;1.84;100.00
61014;BME280;46899;47.542;19.082;2022-12-01T07:54:51;101220.59;;;1.94;100.00
61014;BME280;46899;47.542;19.082;2022-12-01T07:57:53;101220.88;;;2.14;100.00
61014;BME280;46899;47.542;19.082;2022-12-01T08:00:56;101228.97;;;2.46;100.00
61014;BME280;46899;47.542;19.082;2022-12-01T08:04:00;101230.50;;;2.33;100.00
61014;BME280;46899;47.542;19.082;2022-12-01T08:07:03;101226.91;;;2.18;100.00
61014;BME280;46899;47.542;19.082;2022-12-01T08:10:05;101236.41;;;2.23;100.00
61014;BME280;46899;47.542;19.082;2022-12-01T08:13:08;101231.97;;;2.12;100.00
61014;BME280;46899;47.542;19.082;2022-12-01T08:16:19;101242.34;;;2.22;100.00
61014;BME280;46899;47.542;19.082;2022-12-01T08:19:21;101244.28;;;2.38;100.00
61014;BME280;46899;47.542;19.082;2022-12-01T08:22:24;101232.50;;;2.54;100.00
61014;BME280;46899;47.542;19.082;2022-12-01T08:25:27;101223.97;;;2.56;100.00
61014;BME280;46899;47.542;19.082;2022-12-01T08:28:29;101230.13;;;2.70;100.00
61014;BME280;46899;47.542;19.082;2022-12-01T08:31:32;101225.12;;;2.86;100.00
61014;BME280;46899;47.542;19.082;2022-12-01T08:34:36;101225.16;;;2.87;100.00
61014;BME280;46899;47.542;19.082;2022-12-01T08:37:39;101224.41;;;3.00;100.00
61014;BME280;46899;47.542;19.082;2022-12-01T08:40:42;101229.69;;;3.11;100.00
61014;BME280;46899;47.542;19.082;2022-12-01T08:43:44;101228.72;;;3.04;100.00
61014;BME280;46899;47.542;19.082;2022-12-01T08:47:03;101235.81;;;3.25;100.00
61014;BME280;46899;47.542;19.082;2022-12-01T08:50:06;101237.66;;;3.41;100.00
61014;BME280;46899;47.542;19.082;2022-12-01T08:53:08;101232.56;;;3.52;100.00
61014;BME280;46899;47.542;19.082;2022-12-01T08:56:15;101229.19;;;3.59;99.55
61014;BME280;46899;47.542;19.082;2022-12-01T08:59:17;101230.97;;;3.64;100.00
61014;BME280;46899;47.542;19.082;2022-12-01T09:02:20;101237.09;;;3.81;99.31
61014;BME280;46899;47.542;19.082;2022-12-01T09:05:26;101229.44;;;3.90;98.87
61014;BME280;46899;47.542;19.082;2022-12-01T09:08:29;101231.22;;;4.03;97.06
61014;BME280;46899;47.542;19.082;2022-12-01T09:11:38;101229.50;;;4.05;98.29
61014;BME280;46899;47.542;19.082;2022-12-01T09:14:42;101233.03;;;4.24;97.45
61014;BME280;46899;47.542;19.082;2022-12-01T09:17:47;101226.22;;;4.35;95.94
61014;BME280;46899;47.542;19.082;2022-12-01T09:20:49;101218.53;;;4.43;95.57
61014;BME280;46899;47.542;19.082;2022-12-01T09:23:52;101219.41;;;4.49;94.82
61014;BME280;46899;47.542;19.082;2022-12-01T09:26:55;101211.69;;;4.55;94.66
61014;BME280;46899;47.542;19.082;2022-12-01T09:29:58;101210.84;;;4.62;93.19
61014;BME280;46899;47.542;19.082;2022-12-01T09:33:00;101210.03;;;4.77;93.25
61014;BME280;46899;47.542;19.082;2022-12-01T09:36:03;101204.88;;;4.77;93.79
61014;BME280;46899;47.542;19.082;2022-12-01T09:39:06;101206.66;;;4.96;92.37
61014;BME280;46899;47.542;19.082;2022-12-01T09:42:11;101201.50;;;5.10;90.50
61014;BME280;46899;47.542;19.082;2022-12-01T09:45:19;101206.69;;;5.29;88.94
61014;BME280;46899;47.542;19.082;2022-12-01T09:51:32;101204.97;;;5.43;88.75
61014;BME280;46899;47.542;19.082;2022-12-01T09:54:37;101205.81;;;5.53;86.30
61014;BME280;46899;47.542;19.082;2022-12-01T09:57:40;101198.91;;;5.60;85.23
61014;BME280;46899;47.542;19.082;2022-12-01T10:00:42;101199.75;;;5.66;84.62
61014;BME280;46899;47.542;19.082;2022-12-01T10:03:46;101198.91;;;5.67;83.83
61014;BME280;46899;47.542;19.082;2022-12-01T10:06:53;101194.59;;;5.77;82.52
61014;BME280;46899;47.542;19.082;2022-12-01T10:10:02;101192.87;;;5.88;82.89
61014;BME280;46899;47.542;19.082;2022-12-01T10:16:19;101187.59;;;6.15;77.65
61014;BME280;46899;47.542;19.082;2022-12-01T10:19:36;101182.44;;;6.18;80.28
61014;BME280;46899;47.542;19.082;2022-12-01T10:32:13;101180.56;;;6.53;76.38
61014;BME280;46899;47.542;19.082;2022-12-01T10:35:19;101169.28;;;6.66;72.88
61014;BME280;46899;47.542;19.082;2022-12-01T10:38:32;101168.53;;;6.43;73.62
61014;BME280;46899;47.542;19.082;2022-12-01T10:41:36;101166.78;;;6.51;72.54
61014;BME280;46899;47.542;19.082;2022-12-01T10:44:40;101163.31;;;6.55;74.24
61014;BME280;46899;47.542;19.082;2022-12-01T10:51:14;101158.94;;;6.66;74.06
61014;BME280;46899;47.542;19.082;2022-12-01T10:54:17;101157.84;;;6.98;71.10
61014;BME280;46899;47.542;19.082;2022-12-01T10:57:20;101158.59;;;7.12;70.03
61014;BME280;46899;47.542;19.082;2022-12-01T11:00:27;101158.47;;;7.28;69.85
61014;BME280;46899;47.542;19.082;2022-12-01T11:03:53;101158.50;;;7.24;71.66
61014;BME280;46899;47.542;19.082;2022-12-01T11:06:58;101151.44;;;7.42;70.42
61014;BME280;46899;47.542;19.082;2022-12-01T11:10:11;101150.50;;;7.49;68.68
61014;BME280;46899;47.542;19.082;2022-12-01T11:19:34;101135.41;;;7.00;70.11
61014;BME280;46899;47.542;19.082;2022-12-01T11:22:37;101129.22;;;7.19;69.64
61014;BME280;46899;47.542;19.082;2022-12-01T11:25:39;101129.94;;;7.33;69.80
61014;BME280;46899;47.542;19.082;2022-12-01T11:28:49;101123.69;;;7.58;69.68
61014;BME280;46899;47.542;19.082;2022-12-01T11:31:53;101126.62;;;7.19;69.07
61014;BME280;46899;47.542;19.082;2022-12-01T11:34:58;101125.03;;;7.06;70.12
61014;BME280;46899;47.542;19.082;2022-12-01T11:38:02;101125.00;;;7.09;70.92
61014;BME280;46899;47.542;19.082;2022-12-01T11:41:32;101118.28;;;6.86;71.11
61014;BME280;46899;47.542;19.082;2022-12-01T11:44:35;101113.22;;;6.71;72.44
61014;BME280;46899;47.542;19.082;2022-12-01T11:48:07;101117.59;;;6.66;73.44
61014;BME280;46899;47.542;19.082;2022-12-01T11:54:23;101112.41;;;6.65;73.45
61014;BME280;46899;47.542;19.082;2022-12-01T11:57:26;101117.50;;;6.74;73.02
61014;BME280;46899;47.542;19.082;2022-12-01T12:00:42;101107.00;;;6.94;73.13
61014;BME280;46899;47.542;19.082;2022-12-01T12:04:09;101111.28;;;6.99;71.98
61014;BME280;46899;47.542;19.082;2022-12-01T12:26:38;101116.56;;;6.87;72.92
61014;BME280;46899;47.542;19.082;2022-12-01T12:29:47;101102.84;;;6.77;72.37
61014;BME280;46899;47.542;19.082;2022-12-01T12:46:12;101094.25;;;6.72;72.03
61014;BME280;46899;47.542;19.082;2022-12-01T12:52:31;101104.72;;;6.54;72.75
61014;BME280;46899;47.542;19.082;2022-12-01T12:55:38;101098.72;;;6.49;72.51
61014;BME280;46899;47.542;19.082;2022-12-01T12:59:29;101092.72;;;6.44;73.06
61014;BME280;46899;47.542;19.082;2022-12-01T13:02:15;101097.91;;;6.43;73.29
61014;BME280;46899;47.542;19.082;2022-12-01T13:08:43;101097.84;;;6.50;73.86
61014;BME280;46899;47.542;19.082;2022-12-01T13:11:52;101096.97;;;6.51;74.41
61014;BME280;46899;47.542;19.082;2022-12-01T13:15:05;101088.41;;;6.46;74.26
61014;BME280;46899;47.542;19.082;2022-12-01T13:21:20;101083.19;;;6.54;73.88
61014;BME280;46899;47.542;19.082;2022-12-01T13:24:26;101090.91;;;6.55;74.66
61014;BME280;46899;47.542;19.082;2022-12-01T13:27:30;101084.87;;;6.58;74.15
61014;BME280;46899;47.542;19.082;2022-12-01T13:30:34;101084.91;;;6.53;74.29
61014;BME280;46899;47.542;19.082;2022-12-01T13:33:37;101085.72;;;6.58;73.95
61014;BME280;46899;47.542;19.082;2022-12-01T13:36:40;101088.34;;;6.55;74.56
61014;BME280;46899;47.542;19.082;2022-12-01T13:39:49;101083.22;;;6.49;74.76
61014;BME280;46899;47.542;19.082;2022-12-01T13:43:02;101088.37;;;6.52;74.69
61014;BME280;46899;47.542;19.082;2022-12-01T13:46:19;101086.66;;;6.48;75.11
61014;BME280;46899;47.542;19.082;2022-12-01T13:52:35;101084.97;;;6.44;75.47
61014;BME280;46899;47.542;19.082;2022-12-01T13:55:58;101083.19;;;6.48;75.60
61014;BME280;46899;47.542;19.082;2022-12-01T13:59:36;101085.94;;;6.22;77.00
61014;BME280;46899;47.542;19.082;2022-12-01T14:02:27;101090.34;;;6.09;77.17
61014;BME280;46899;47.542;19.082;2022-12-01T14:08:45;101087.81;;;5.96;78.04
61014;BME280;46899;47.542;19.082;2022-12-01T14:11:53;101087.81;;;5.96;78.29
61014;BME280;46899;47.542;19.082;2022-12-01T14:14:58;101087.84;;;5.84;79.54
61014;BME280;46899;47.542;19.082;2022-12-01T14:18:03;101087.00;;;5.79;80.30
61014;BME280;46899;47.542;19.082;2022-12-01T14:21:10;101087.03;;;5.71;80.89
61014;BME280;46899;47.542;19.082;2022-12-01T14:24:23;101078.47;;;5.56;81.41
61014;BME280;46899;47.542;19.082;2022-12-01T14:27:36;101081.06;;;5.42;83.06
61014;BME280;46899;47.542;19.082;2022-12-01T14:33:42;101076.84;;;5.23;84.66
61014;BME280;46899;47.542;19.082;2022-12-01T14:36:46;101073.41;;;5.04;87.17
61014;BME280;46899;47.542;19.082;2022-12-01T14:39:57;101075.13;;;4.93;87.76
61014;BME280;46899;47.542;19.082;2022-12-01T14:43:04;101079.44;;;4.85;88.03
61014;BME280;46899;47.542;19.082;2022-12-01T14:46:25;101084.59;;;4.77;88.66
61014;BME280;46899;47.542;19.082;2022-12-01T14:49:38;101078.56;;;4.66;89.93
61014;BME280;46899;47.542;19.082;2022-12-01T14:52:43;101077.69;;;4.60;91.64
61014;BME280;46899;47.542;19.082;2022-12-01T14:56:00;101071.69;;;4.59;91.74
61014;BME280;46899;47.542;19.082;2022-12-01T14:59:13;101078.56;;;4.60;92.68
61014;BME280;46899;47.542;19.082;2022-12-01T15:02:16;101079.41;;;4.55;92.32
61014;BME280;46899;47.542;19.082;2022-12-01T15:05:19;101075.97;;;4.42;93.22
61014;BME280;46899;47.542;19.082;2022-12-01T15:08:27;101083.69;;;4.33;94.63
61014;BME280;46899;47.542;19.082;2022-12-01T15:14:53;101083.66;;;4.23;96.67
61014;BME280;46899;47.542;19.082;2022-12-01T15:17:56;101084.50;;;4.22;95.53
61014;BME280;46899;47.542;19.082;2022-12-01T15:24:21;101082.78;;;4.11;97.83
61014;BME280;46899;47.542;19.082;2022-12-01T15:27:26;101091.37;;;4.17;98.78
61014;BME280;46899;47.542;19.082;2022-12-01T15:30:29;101089.66;;;4.19;98.31
61014;BME280;46899;47.542;19.082;2022-12-01T15:33:33;101092.22;;;4.11;98.79
61014;BME280;46899;47.542;19.082;2022-12-01T15:36:38;101086.19;;;4.07;98.55
61014;BME280;46899;47.542;19.082;2022-12-01T15:39:51;101087.06;;;4.06;99.72
61014;BME280;46899;47.542;19.082;2022-12-01T15:43:02;101081.03;;;4.04;100.00
61014;BME280;46899;47.542;19.082;2022-12-01T15:49:28;101084.47;;;4.06;98.75
61014;BME280;46899;47.542;19.082;2022-12-01T15:52:41;101088.75;;;4.00;99.39
61014;BME280;46899;47.542;19.082;2022-12-01T15:55:45;101079.28;;;3.94;100.00
61014;BME280;46899;47.542;19.082;2022-12-01T15:58:48;101085.28;;;3.90;100.00
61014;BME280;46899;47.542;19.082;2022-12-01T16:01:50;101089.53;;;3.87;100.00
61014;BME280;46899;47.542;19.082;2022-12-01T16:08:17;101089.47;;;3.75;100.00
61014;BME280;46899;47.542;19.082;2022-12-01T16:11:21;101092.06;;;3.72;100.00
61014;BME280;46899;47.542;19.082;2022-12-01T16:14:24;101094.59;;;3.64;100.00
61014;BME280;46899;47.542;19.082;2022-12-01T16:17:38;101097.16;;;3.60;100.00
61014;BME280;46899;47.542;19.082;2022-12-01T16:20:41;101089.41;;;3.57;100.00
61014;BME280;46899;47.542;19.082;2022-12-01T16:23:44;101087.69;;;3.57;100.00
61014;BME280;46899;47.542;19.082;2022-12-01T16:26:50;101089.41;;;3.55;100.00
61014;BME280;46899;47.542;19.082;2022-12-01T16:29:58;101094.53;;;3.51;100.00
61014;BME280;46899;47.542;19.082;2022-12-01T16:33:03;101086.81;;;3.51;100.00
61014;BME280;46899;47.542;19.082;2022-12-01T16:36:06;101092.84;;;3.56;100.00
61014;BME280;46899;47.542;19.082;2022-12-01T16:39:10;101090.22;;;3.50;100.00
61014;BME280;46899;47.542;19.082;2022-12-01T16:42:13;101089.31;;;3.40;100.00
61014;BME280;46899;47.542;19.082;2022-12-01T16:45:16;101091.88;;;3.34;100.00
61014;BME280;46899;47.542;19.082;2022-12-01T16:48:20;101089.25;;;3.29;100.00
61014;BME280;46899;47.542;19.082;2022-12-01T16:51:22;101096.12;;;3.29;100.00
61014;BME280;46899;47.542;19.082;2022-12-01T16:54:43;101089.22;;;3.28;100.00
61014;BME280;46899;47.542;19.082;2022-12-01T16:57:45;101094.41;;;3.31;100.00
61014;BME280;46899;47.542;19.082;2022-12-01T17:00:48;101092.66;;;3.24;100.00
61014;BME280;46899;47.542;19.082;2022-12-01T17:03:53;101097.78;;;3.22;100.00
61014;BME280;46899;47.542;19.082;2022-12-01T17:06:56;101100.34;;;3.21;100.00
61014;BME280;46899;47.542;19.082;2022-12-01T17:09:58;101099.47;;;3.19;100.00
61014;BME280;46899;47.542;19.082;2022-12-01T17:13:01;101105.44;;;3.16;100.00
61014;BME280;46899;47.542;19.082;2022-12-01T17:16:05;101111.47;;;3.20;100.00
61014;BME280;46899;47.542;19.082;2022-12-01T17:19:09;101106.34;;;3.20;100.00
61014;BME280;46899;47.542;19.082;2022-12-01T17:22:11;101107.16;;;3.14;100.00
61014;BME280;46899;47.542;19.082;2022-12-01T17:25:14;101106.34;;;3.23;100.00
61014;BME280;46899;47.542;19.082;2022-12-01T17:28:16;101107.19;;;3.19;100.00
61014;BME280;46899;47.542;19.082;2022-12-01T17:31:19;101108.00;;;3.15;100.00
61014;BME280;46899;47.542;19.082;2022-12-01T17:34:21;101106.28;;;3.14;100.00
61014;BME280;46899;47.542;19.082;2022-12-01T17:37:27;101108.78;;;3.06;100.00
61014;BME280;46899;47.542;19.082;2022-12-01T17:40:31;101107.09;;;3.04;100.00
61014;BME280;46899;47.542;19.082;2022-12-01T17:43:34;101107.00;;;2.93;100.00
61014;BME280;46899;47.542;19.082;2022-12-01T17:46:37;101111.19;;;2.84;100.00
61014;BME280;46899;47.542;19.082;2022-12-01T17:49:39;101111.16;;;2.78;100.00
61014;BME280;46899;47.542;19.082;2022-12-01T17:52:42;101113.69;;;2.73;100.00
61014;BME280;46899;47.542;19.082;2022-12-01T17:55:44;101112.75;;;2.66;100.00
61014;BME280;46899;47.542;19.082;2022-12-01T17:58:47;101110.12;;;2.60;100.00
61014;BME280;46899;47.542;19.082;2022-12-01T18:01:51;101107.47;;;2.54;100.00
61014;BME280;46899;47.542;19.082;2022-12-01T18:04:54;101110.00;;;2.50;100.00